sensor_id;sensor_type;location;lat;lon;timestamp;P1;durP1;ratioP1;P2;durP2;ratioP2
9671;SDS011;4874;43.568;27.824;2023-06-22T00:00:54;11.25;;;8.15;;
9671;SDS011;4874;43.568;27.824;2023-06-22T00:03:22;11.60;;;7.10;;
9671;SDS011;4874;43.568;27.824;2023-06-22T00:05:53;10.00;;;7.53;;
9671;SDS011;4874;43.568;27.824;2023-06-22T00:08:20;10.43;;;7.65;;
9671;SDS011;4874;43.568;27.824;2023-06-22T00:10:47;11.60;;;7.97;;
9671;SDS011;4874;43.568;27.824;2023-06-22T00:13:14;11.65;;;8.10;;
9671;SDS011;4874;43.568;27.824;2023-06-22T00:15:41;10.55;;;7.90;;
9671;SDS011;4874;43.568;27.824;2023-06-22T00:18:08;11.85;;;8.05;;
9671;SDS011;4874;43.568;27.824;2023-06-22T00:20:36;12.52;;;7.50;;
9671;SDS011;4874;43.568;27.824;2023-06-22T00:23:04;13.80;;;8.90;;
9671;SDS011;4874;43.568;27.824;2023-06-22T00:25:35;11.00;;;7.93;;
9671;SDS011;4874;43.568;27.824;2023-06-22T00:28:03;16.20;;;7.97;;
9671;SDS011;4874;43.568;27.824;2023-06-22T00:30:31;12.82;;;8.60;;
9671;SDS011;4874;43.568;27.824;2023-06-22T00:32:58;17.38;;;8.07;;
9671;SDS011;4874;43.568;27.824;2023-06-22T00:35:26;12.93;;;8.25;;
9671;SDS011;4874;43.568;27.824;2023-06-22T00:37:56;12.18;;;7.82;;
9671;SDS011;4874;43.568;27.824;2023-06-22T00:40:28;10.85;;;8.13;;
9671;SDS011;4874;43.568;27.824;2023-06-22T00:42:55;12.32;;;8.63;;
9671;SDS011;4874;43.568;27.824;2023-06-22T00:45:23;10.13;;;8.25;;
9671;SDS011;4874;43.568;27.824;2023-06-22T00:47:53;11.18;;;8.27;;
9671;SDS011;4874;43.568;27.824;2023-06-22T00:50:23;13.88;;;8.40;;
9671;SDS011;4874;43.568;27.824;2023-06-22T00:52:56;13.30;;;8.93;;
9671;SDS011;4874;43.568;27.824;2023-06-22T00:55:25;9.90;;;7.43;;
9671;SDS011;4874;43.568;27.824;2023-06-22T00:57:52;11.25;;;8.40;;
9671;SDS011;4874;43.568;27.824;2023-06-22T01:00:23;11.82;;;8.02;;
9671;SDS011;4874;43.568;27.824;2023-06-22T01:02:51;12.13;;;8.23;;
9671;SDS011;4874;43.568;27.824;2023-06-22T01:05:19;11.27;;;8.65;;
9671;SDS011;4874;43.568;27.824;2023-06-22T01:13:18;12.82;;;8.77;;
9671;SDS011;4874;43.568;27.824;2023-06-22T01:18:50;13.15;;;9.15;;
9671;SDS011;4874;43.568;27.824;2023-06-22T01:21:21;14.05;;;8.90;;
9671;SDS011;4874;43.568;27.824;2023-06-22T01:23:56;12.57;;;8.38;;
9671;SDS011;4874;43.568;27.824;2023-06-22T01:29:31;12.18;;;8.35;;
9671;SDS011;4874;43.568;27.824;2023-06-22T01:32:00;12.38;;;8.90;;
9671;SDS011;4874;43.568;27.824;2023-06-22T01:34:31;17.05;;;8.63;;
9671;SDS011;4874;43.568;27.824;2023-06-22T01:36:59;13.40;;;9.18;;
9671;SDS011;4874;43.568;27.824;2023-06-22T01:39:28;12.13;;;8.35;;
9671;SDS011;4874;43.568;27.824;2023-06-22T01:41:56;9.60;;;8.10;;
9671;SDS011;4874;43.568;27.824;2023-06-22T01:44:23;13.52;;;8.57;;
9671;SDS011;4874;43.568;27.824;2023-06-22T01:46:52;15.68;;;8.95;;
9671;SDS011;4874;43.568;27.824;2023-06-22T01:49:19;12.95;;;8.52;;
9671;SDS011;4874;43.568;27.824;2023-06-22T01:51:46;14.77;;;9.00;;
9671;SDS011;4874;43.568;27.824;2023-06-22T01:54:13;12.73;;;8.38;;
9671;SDS011;4874;43.568;27.824;2023-06-22T01:56:40;11.18;;;7.85;;
9671;SDS011;4874;43.568;27.824;2023-06-22T02:02:01;15.30;;;8.02;;
9671;SDS011;4874;43.568;27.824;2023-06-22T02:04:34;14.10;;;8.57;;
9671;SDS011;4874;43.568;27.824;2023-06-22T02:07:09;11.93;;;8.43;;
9671;SDS011;4874;43.568;27.824;2023-06-22T02:09:40;12.05;;;8.18;;
9671;SDS011;4874;43.568;27.824;2023-06-22T02:12:13;12.85;;;8.70;;
9671;SDS011;4874;43.568;27.824;2023-06-22T02:14:45;13.02;;;8.43;;
9671;SDS011;4874;43.568;27.824;2023-06-22T02:17:13;11.18;;;8.75;;
9671;SDS011;4874;43.568;27.824;2023-06-22T02:19:43;13.45;;;8.23;;
9671;SDS011;4874;43.568;27.824;2023-06-22T02:22:09;12.93;;;8.00;;
9671;SDS011;4874;43.568;27.824;2023-06-22T02:24:36;11.07;;;8.50;;
9671;SDS011;4874;43.568;27.824;2023-06-22T02:27:03;12.00;;;8.63;;
9671;SDS011;4874;43.568;27.824;2023-06-22T02:29:32;14.15;;;8.30;;
9671;SDS011;4874;43.568;27.824;2023-06-22T02:31:59;11.45;;;8.35;;
9671;SDS011;4874;43.568;27.824;2023-06-22T02:34:26;12.05;;;7.88;;
9671;SDS011;4874;43.568;27.824;2023-06-22T02:36:52;13.13;;;8.50;;
9671;SDS011;4874;43.568;27.824;2023-06-22T02:39:20;13.52;;;8.15;;
9671;SDS011;4874;43.568;27.824;2023-06-22T02:41:52;13.45;;;8.63;;
9671;SDS011;4874;43.568;27.824;2023-06-22T02:44:20;13.00;;;8.73;;
9671;SDS011;4874;43.568;27.824;2023-06-22T02:46:47;12.88;;;8.13;;
9671;SDS011;4874;43.568;27.824;2023-06-22T02:49:14;12.38;;;8.73;;
9671;SDS011;4874;43.568;27.824;2023-06-22T02:51:50;11.75;;;9.00;;
9671;SDS011;4874;43.568;27.824;2023-06-22T02:54:17;10.88;;;8.23;;
9671;SDS011;4874;43.568;27.824;2023-06-22T02:56:44;12.75;;;8.13;;
9671;SDS011;4874;43.568;27.824;2023-06-22T02:59:10;14.48;;;9.57;;
9671;SDS011;4874;43.568;27.824;2023-06-22T03:01:37;13.38;;;9.18;;
9671;SDS011;4874;43.568;27.824;2023-06-22T03:04:06;12.15;;;8.52;;
9671;SDS011;4874;43.568;27.824;2023-06-22T03:06:34;11.98;;;8.15;;
9671;SDS011;4874;43.568;27.824;2023-06-22T03:09:02;14.73;;;9.05;;
9671;SDS011;4874;43.568;27.824;2023-06-22T03:11:31;11.88;;;8.77;;
9671;SDS011;4874;43.568;27.824;2023-06-22T03:13:58;10.07;;;8.20;;
9671;SDS011;4874;43.568;27.824;2023-06-22T03:16:26;11.20;;;8.30;;
9671;SDS011;4874;43.568;27.824;2023-06-22T03:18:53;9.98;;;8.32;;
9671;SDS011;4874;43.568;27.824;2023-06-22T03:21:21;14.93;;;8.90;;
9671;SDS011;4874;43.568;27.824;2023-06-22T03:23:49;14.27;;;8.13;;
9671;SDS011;4874;43.568;27.824;2023-06-22T03:26:16;13.93;;;7.68;;
9671;SDS011;4874;43.568;27.824;2023-06-22T03:28:44;14.27;;;8.70;;
9671;SDS011;4874;43.568;27.824;2023-06-22T03:31:10;14.30;;;9.05;;
9671;SDS011;4874;43.568;27.824;2023-06-22T03:33:37;10.52;;;8.57;;
9671;SDS011;4874;43.568;27.824;2023-06-22T03:36:04;13.48;;;9.10;;
9671;SDS011;4874;43.568;27.824;2023-06-22T03:38:32;13.43;;;9.23;;
9671;SDS011;4874;43.568;27.824;2023-06-22T03:40:58;12.05;;;9.57;;
9671;SDS011;4874;43.568;27.824;2023-06-22T03:43:25;11.57;;;9.70;;
9671;SDS011;4874;43.568;27.824;2023-06-22T03:45:52;10.75;;;8.32;;
9671;SDS011;4874;43.568;27.824;2023-06-22T03:48:19;14.57;;;9.45;;
9671;SDS011;4874;43.568;27.824;2023-06-22T03:50:45;11.93;;;9.50;;
9671;SDS011;4874;43.568;27.824;2023-06-22T03:53:12;11.30;;;9.23;;
9671;SDS011;4874;43.568;27.824;2023-06-22T03:55:47;13.73;;;9.20;;
9671;SDS011;4874;43.568;27.824;2023-06-22T03:58:17;13.90;;;9.93;;
9671;SDS011;4874;43.568;27.824;2023-06-22T04:00:48;13.35;;;9.63;;
9671;SDS011;4874;43.568;27.824;2023-06-22T04:03:16;15.07;;;9.52;;
9671;SDS011;4874;43.568;27.824;2023-06-22T04:05:47;12.25;;;9.32;;
9671;SDS011;4874;43.568;27.824;2023-06-22T04:08:14;13.07;;;8.82;;
9671;SDS011;4874;43.568;27.824;2023-06-22T04:10:41;16.10;;;9.48;;
9671;SDS011;4874;43.568;27.824;2023-06-22T04:13:08;18.63;;;10.27;;
9671;SDS011;4874;43.568;27.824;2023-06-22T04:15:35;16.33;;;9.82;;
9671;SDS011;4874;43.568;27.824;2023-06-22T04:18:02;13.80;;;9.93;;
9671;SDS011;4874;43.568;27.824;2023-06-22T04:20:30;15.15;;;9.23;;
9671;SDS011;4874;43.568;27.824;2023-06-22T04:22:58;16.92;;;10.23;;
9671;SDS011;4874;43.568;27.824;2023-06-22T04:25:25;14.90;;;9.77;;
9671;SDS011;4874;43.568;27.824;2023-06-22T04:27:52;14.85;;;9.00;;
9671;SDS011;4874;43.568;27.824;2023-06-22T04:30:19;13.00;;;9.73;;
9671;SDS011;4874;43.568;27.824;2023-06-22T04:32:45;15.50;;;10.35;;
9671;SDS011;4874;43.568;27.824;2023-06-22T04:35:24;17.35;;;10.43;;
9671;SDS011;4874;43.568;27.824;2023-06-22T04:37:52;12.23;;;8.93;;
9671;SDS011;4874;43.568;27.824;2023-06-22T04:40:22;13.15;;;9.13;;
9671;SDS011;4874;43.568;27.824;2023-06-22T04:42:49;12.63;;;10.15;;
9671;SDS011;4874;43.568;27.824;2023-06-22T04:45:19;14.88;;;10.52;;
9671;SDS011;4874;43.568;27.824;2023-06-22T04:47:47;24.23;;;14.70;;
9671;SDS011;4874;43.568;27.824;2023-06-22T04:50:14;24.58;;;18.13;;
9671;SDS011;4874;43.568;27.824;2023-06-22T04:52:41;17.88;;;9.77;;
9671;SDS011;4874;43.568;27.824;2023-06-22T04:55:08;14.23;;;9.75;;
9671;SDS011;4874;43.568;27.824;2023-06-22T04:57:35;18.83;;;12.35;;
9671;SDS011;4874;43.568;27.824;2023-06-22T05:00:05;16.77;;;11.05;;
9671;SDS011;4874;43.568;27.824;2023-06-22T05:02:39;16.17;;;11.63;;
9671;SDS011;4874;43.568;27.824;2023-06-22T05:05:06;13.50;;;10.18;;
9671;SDS011;4874;43.568;27.824;2023-06-22T05:07:34;18.05;;;10.98;;
9671;SDS011;4874;43.568;27.824;2023-06-22T05:10:01;19.35;;;10.40;;
9671;SDS011;4874;43.568;27.824;2023-06-22T05:12:29;18.08;;;10.90;;
9671;SDS011;4874;43.568;27.824;2023-06-22T05:14:57;14.15;;;9.13;;
9671;SDS011;4874;43.568;27.824;2023-06-22T05:17:24;12.00;;;9.73;;
9671;SDS011;4874;43.568;27.824;2023-06-22T05:19:51;15.60;;;9.75;;
9671;SDS011;4874;43.568;27.824;2023-06-22T05:22:18;15.85;;;11.93;;
9671;SDS011;4874;43.568;27.824;2023-06-22T05:24:45;15.73;;;10.95;;
9671;SDS011;4874;43.568;27.824;2023-06-22T05:27:13;17.13;;;10.23;;
9671;SDS011;4874;43.568;27.824;2023-06-22T05:29:40;13.35;;;8.40;;
9671;SDS011;4874;43.568;27.824;2023-06-22T05:32:09;9.95;;;8.15;;
9671;SDS011;4874;43.568;27.824;2023-06-22T05:34:36;13.50;;;8.05;;
9671;SDS011;4874;43.568;27.824;2023-06-22T05:37:03;10.27;;;8.00;;
9671;SDS011;4874;43.568;27.824;2023-06-22T05:39:30;10.82;;;7.75;;
9671;SDS011;4874;43.568;27.824;2023-06-22T05:41:57;10.88;;;7.88;;
9671;SDS011;4874;43.568;27.824;2023-06-22T05:44:24;10.95;;;7.97;;
9671;SDS011;4874;43.568;27.824;2023-06-22T05:46:50;9.32;;;7.50;;
9671;SDS011;4874;43.568;27.824;2023-06-22T05:49:17;10.63;;;8.13;;
9671;SDS011;4874;43.568;27.824;2023-06-22T05:51:44;9.05;;;6.75;;
9671;SDS011;4874;43.568;27.824;2023-06-22T05:54:11;12.75;;;7.07;;
9671;SDS011;4874;43.568;27.824;2023-06-22T05:56:39;9.07;;;6.55;;
9671;SDS011;4874;43.568;27.824;2023-06-22T05:59:06;7.82;;;6.38;;
9671;SDS011;4874;43.568;27.824;2023-06-22T06:01:33;8.43;;;6.55;;
9671;SDS011;4874;43.568;27.824;2023-06-22T06:04:03;9.07;;;6.10;;
9671;SDS011;4874;43.568;27.824;2023-06-22T06:06:30;10.32;;;6.07;;
9671;SDS011;4874;43.568;27.824;2023-06-22T06:08:57;7.45;;;6.47;;
9671;SDS011;4874;43.568;27.824;2023-06-22T06:11:25;7.78;;;6.20;;
9671;SDS011;4874;43.568;27.824;2023-06-22T06:13:52;7.28;;;5.95;;
9671;SDS011;4874;43.568;27.824;2023-06-22T06:16:19;7.70;;;6.18;;
9671;SDS011;4874;43.568;27.824;2023-06-22T06:18:46;6.63;;;5.78;;
9671;SDS011;4874;43.568;27.824;2023-06-22T06:21:14;7.40;;;6.00;;
9671;SDS011;4874;43.568;27.824;2023-06-22T06:23:41;8.80;;;6.00;;
9671;SDS011;4874;43.568;27.824;2023-06-22T06:26:08;7.55;;;5.90;;
9671;SDS011;4874;43.568;27.824;2023-06-22T06:28:35;7.80;;;6.25;;
9671;SDS011;4874;43.568;27.824;2023-06-22T06:31:02;8.40;;;6.07;;
9671;SDS011;4874;43.568;27.824;2023-06-22T06:33:29;7.45;;;5.88;;
9671;SDS011;4874;43.568;27.824;2023-06-22T06:35:57;7.03;;;5.10;;
9671;SDS011;4874;43.568;27.824;2023-06-22T06:38:24;8.80;;;6.15;;
9671;SDS011;4874;43.568;27.824;2023-06-22T06:40:51;7.28;;;5.25;;
9671;SDS011;4874;43.568;27.824;2023-06-22T06:43:18;7.78;;;5.13;;
9671;SDS011;4874;43.568;27.824;2023-06-22T06:45:45;7.32;;;4.90;;
9671;SDS011;4874;43.568;27.824;2023-06-22T06:48:11;6.18;;;4.75;;
9671;SDS011;4874;43.568;27.824;2023-06-22T06:50:38;5.75;;;4.53;;
9671;SDS011;4874;43.568;27.824;2023-06-22T06:53:05;7.93;;;4.75;;
9671;SDS011;4874;43.568;27.824;2023-06-22T06:55:33;6.45;;;4.22;;
9671;SDS011;4874;43.568;27.824;2023-06-22T06:58:00;8.35;;;4.43;;
9671;SDS011;4874;43.568;27.824;2023-06-22T07:00:28;6.15;;;4.22;;
9671;SDS011;4874;43.568;27.824;2023-06-22T07:02:55;7.45;;;4.47;;
9671;SDS011;4874;43.568;27.824;2023-06-22T07:05:22;6.35;;;4.57;;
9671;SDS011;4874;43.568;27.824;2023-06-22T07:07:49;5.78;;;4.38;;
9671;SDS011;4874;43.568;27.824;2023-06-22T07:10:16;6.13;;;4.55;;
9671;SDS011;4874;43.568;27.824;2023-06-22T07:12:43;5.25;;;4.03;;
9671;SDS011;4874;43.568;27.824;2023-06-22T07:15:09;4.63;;;3.88;;
9671;SDS011;4874;43.568;27.824;2023-06-22T07:17:38;5.00;;;4.30;;
9671;SDS011;4874;43.568;27.824;2023-06-22T07:20:09;5.10;;;3.72;;
9671;SDS011;4874;43.568;27.824;2023-06-22T07:22:39;6.13;;;5.20;;
9671;SDS011;4874;43.568;27.824;2023-06-22T07:25:08;7.30;;;4.65;;
9671;SDS011;4874;43.568;27.824;2023-06-22T07:27:36;5.30;;;4.30;;
9671;SDS011;4874;43.568;27.824;2023-06-22T07:30:04;7.18;;;4.40;;
9671;SDS011;4874;43.568;27.824;2023-06-22T07:32:31;6.63;;;4.75;;
9671;SDS011;4874;43.568;27.824;2023-06-22T07:34:58;8.52;;;4.40;;
9671;SDS011;4874;43.568;27.824;2023-06-22T07:37:25;5.88;;;4.80;;
9671;SDS011;4874;43.568;27.824;2023-06-22T07:39:54;6.57;;;4.65;;
9671;SDS011;4874;43.568;27.824;2023-06-22T07:42:25;5.03;;;4.22;;
9671;SDS011;4874;43.568;27.824;2023-06-22T07:44:53;5.60;;;4.15;;
9671;SDS011;4874;43.568;27.824;2023-06-22T07:47:20;5.47;;;4.30;;
9671;SDS011;4874;43.568;27.824;2023-06-22T07:49:51;5.45;;;4.25;;
9671;SDS011;4874;43.568;27.824;2023-06-22T07:52:21;4.93;;;4.22;;
9671;SDS011;4874;43.568;27.824;2023-06-22T07:54:48;5.63;;;3.80;;
9671;SDS011;4874;43.568;27.824;2023-06-22T07:57:14;5.55;;;4.22;;
9671;SDS011;4874;43.568;27.824;2023-06-22T07:59:41;4.57;;;3.75;;
9671;SDS011;4874;43.568;27.824;2023-06-22T08:02:08;4.90;;;4.25;;
9671;SDS011;4874;43.568;27.824;2023-06-22T08:04:36;5.97;;;4.72;;
9671;SDS011;4874;43.568;27.824;2023-06-22T08:07:03;5.57;;;3.90;;
9671;SDS011;4874;43.568;27.824;2023-06-22T08:09:31;5.53;;;4.25;;
9671;SDS011;4874;43.568;27.824;2023-06-22T08:11:59;5.50;;;4.47;;
9671;SDS011;4874;43.568;27.824;2023-06-22T08:14:26;7.00;;;5.70;;
9671;SDS011;4874;43.568;27.824;2023-06-22T08:16:53;6.55;;;3.95;;
9671;SDS011;4874;43.568;27.824;2023-06-22T08:19:20;5.80;;;4.30;;
9671;SDS011;4874;43.568;27.824;2023-06-22T08:21:47;7.60;;;4.15;;
9671;SDS011;4874;43.568;27.824;2023-06-22T08:24:14;6.15;;;4.43;;
9671;SDS011;4874;43.568;27.824;2023-06-22T08:26:41;5.55;;;4.07;;
9671;SDS011;4874;43.568;27.824;2023-06-22T08:29:07;6.13;;;4.40;;
9671;SDS011;4874;43.568;27.824;2023-06-22T08:31:34;4.97;;;4.18;;
9671;SDS011;4874;43.568;27.824;2023-06-22T08:34:01;6.90;;;4.07;;
9671;SDS011;4874;43.568;27.824;2023-06-22T08:36:28;4.93;;;3.97;;
9671;SDS011;4874;43.568;27.824;2023-06-22T08:38:56;5.97;;;4.10;;
9671;SDS011;4874;43.568;27.824;2023-06-22T08:41:24;5.28;;;4.43;;
9671;SDS011;4874;43.568;27.824;2023-06-22T08:43:51;5.47;;;4.22;;
9671;SDS011;4874;43.568;27.824;2023-06-22T08:46:19;5.75;;;4.07;;
9671;SDS011;4874;43.568;27.824;2023-06-22T08:48:49;8.98;;;7.47;;
9671;SDS011;4874;43.568;27.824;2023-06-22T08:51:16;6.68;;;4.70;;
9671;SDS011;4874;43.568;27.824;2023-06-22T08:53:43;5.35;;;4.40;;
9671;SDS011;4874;43.568;27.824;2023-06-22T08:56:11;6.03;;;3.97;;
9671;SDS011;4874;43.568;27.824;2023-06-22T08:58:38;5.05;;;4.45;;
9671;SDS011;4874;43.568;27.824;2023-06-22T09:01:05;5.13;;;4.38;;
9671;SDS011;4874;43.568;27.824;2023-06-22T09:03:31;5.22;;;3.97;;
9671;SDS011;4874;43.568;27.824;2023-06-22T09:05:59;7.28;;;4.30;;
9671;SDS011;4874;43.568;27.824;2023-06-22T09:08:26;6.82;;;4.38;;
9671;SDS011;4874;43.568;27.824;2023-06-22T09:10:53;7.63;;;6.13;;
9671;SDS011;4874;43.568;27.824;2023-06-22T09:13:19;6.25;;;5.40;;
9671;SDS011;4874;43.568;27.824;2023-06-22T09:15:46;6.32;;;4.68;;
9671;SDS011;4874;43.568;27.824;2023-06-22T09:18:13;5.78;;;4.55;;
9671;SDS011;4874;43.568;27.824;2023-06-22T09:20:40;7.80;;;4.90;;
9671;SDS011;4874;43.568;27.824;2023-06-22T09:23:08;6.50;;;5.50;;
9671;SDS011;4874;43.568;27.824;2023-06-22T09:25:35;6.35;;;4.10;;
9671;SDS011;4874;43.568;27.824;2023-06-22T09:28:02;4.53;;;4.00;;
9671;SDS011;4874;43.568;27.824;2023-06-22T09:30:29;6.03;;;4.10;;
9671;SDS011;4874;43.568;27.824;2023-06-22T09:32:56;5.22;;;4.25;;
9671;SDS011;4874;43.568;27.824;2023-06-22T09:35:23;6.40;;;4.65;;
9671;SDS011;4874;43.568;27.824;2023-06-22T09:37:49;5.35;;;4.00;;
9671;SDS011;4874;43.568;27.824;2023-06-22T09:40:17;5.55;;;4.35;;
9671;SDS011;4874;43.568;27.824;2023-06-22T09:42:44;6.63;;;4.30;;
9671;SDS011;4874;43.568;27.824;2023-06-22T09:45:10;6.80;;;3.63;;
9671;SDS011;4874;43.568;27.824;2023-06-22T09:47:37;5.65;;;3.80;;
9671;SDS011;4874;43.568;27.824;2023-06-22T09:50:05;5.15;;;4.05;;
9671;SDS011;4874;43.568;27.824;2023-06-22T09:52:32;4.40;;;3.58;;
9671;SDS011;4874;43.568;27.824;2023-06-22T09:55:13;4.95;;;3.60;;
9671;SDS011;4874;43.568;27.824;2023-06-22T09:57:41;4.88;;;3.53;;
9671;SDS011;4874;43.568;27.824;2023-06-22T10:00:08;5.32;;;3.95;;
9671;SDS011;4874;43.568;27.824;2023-06-22T10:02:38;4.60;;;3.50;;
9671;SDS011;4874;43.568;27.824;2023-06-22T10:05:05;4.35;;;3.50;;
9671;SDS011;4874;43.568;27.824;2023-06-22T10:07:32;4.90;;;3.67;;
9671;SDS011;4874;43.568;27.824;2023-06-22T10:09:59;5.25;;;3.60;;
9671;SDS011;4874;43.568;27.824;2023-06-22T10:12:27;5.88;;;3.72;;
9671;SDS011;4874;43.568;27.824;2023-06-22T10:14:53;6.97;;;3.55;;
9671;SDS011;4874;43.568;27.824;2023-06-22T10:17:20;6.18;;;4.63;;
9671;SDS011;4874;43.568;27.824;2023-06-22T10:19:47;4.97;;;3.28;;
9671;SDS011;4874;43.568;27.824;2023-06-22T10:22:14;5.55;;;3.42;;
9671;SDS011;4874;43.568;27.824;2023-06-22T10:24:40;5.88;;;3.65;;
9671;SDS011;4874;43.568;27.824;2023-06-22T10:27:11;8.07;;;3.58;;
9671;SDS011;4874;43.568;27.824;2023-06-22T10:29:38;6.20;;;4.68;;
9671;SDS011;4874;43.568;27.824;2023-06-22T10:32:05;6.28;;;3.72;;
9671;SDS011;4874;43.568;27.824;2023-06-22T10:34:32;7.90;;;3.85;;
9671;SDS011;4874;43.568;27.824;2023-06-22T10:36:59;4.88;;;3.35;;
9671;SDS011;4874;43.568;27.824;2023-06-22T10:39:25;5.75;;;3.10;;
9671;SDS011;4874;43.568;27.824;2023-06-22T10:41:52;4.13;;;3.25;;
9671;SDS011;4874;43.568;27.824;2023-06-22T10:44:19;4.07;;;3.13;;
9671;SDS011;4874;43.568;27.824;2023-06-22T10:46:46;5.32;;;3.28;;
9671;SDS011;4874;43.568;27.824;2023-06-22T10:49:13;6.13;;;3.38;;
9671;SDS011;4874;43.568;27.824;2023-06-22T10:51:40;4.35;;;3.20;;
9671;SDS011;4874;43.568;27.824;2023-06-22T10:54:08;5.70;;;3.70;;
9671;SDS011;4874;43.568;27.824;2023-06-22T10:56:34;3.92;;;3.38;;
9671;SDS011;4874;43.568;27.824;2023-06-22T10:59:01;7.00;;;4.05;;
9671;SDS011;4874;43.568;27.824;2023-06-22T11:01:28;4.88;;;3.83;;
9671;SDS011;4874;43.568;27.824;2023-06-22T11:09:08;5.88;;;3.65;;
9671;SDS011;4874;43.568;27.824;2023-06-22T11:11:49;4.43;;;3.60;;
9671;SDS011;4874;43.568;27.824;2023-06-22T11:14:19;5.72;;;3.72;;
9671;SDS011;4874;43.568;27.824;2023-06-22T11:16:46;5.35;;;3.58;;
9671;SDS011;4874;43.568;27.824;2023-06-22T11:19:13;9.35;;;3.67;;
9671;SDS011;4874;43.568;27.824;2023-06-22T11:21:40;5.85;;;3.53;;
9671;SDS011;4874;43.568;27.824;2023-06-22T11:24:07;5.50;;;3.92;;
9671;SDS011;4874;43.568;27.824;2023-06-22T11:26:34;4.38;;;3.35;;
9671;SDS011;4874;43.568;27.824;2023-06-22T11:29:01;4.70;;;3.55;;
9671;SDS011;4874;43.568;27.824;2023-06-22T11:31:31;5.47;;;3.75;;
9671;SDS011;4874;43.568;27.824;2023-06-22T11:33:58;4.90;;;3.72;;
9671;SDS011;4874;43.568;27.824;2023-06-22T11:36:25;5.35;;;3.63;;
9671;SDS011;4874;43.568;27.824;2023-06-22T11:38:52;6.78;;;3.88;;
9671;SDS011;4874;43.568;27.824;2023-06-22T11:41:19;5.30;;;3.90;;
9671;SDS011;4874;43.568;27.824;2023-06-22T11:43:46;4.75;;;3.40;;
9671;SDS011;4874;43.568;27.824;2023-06-22T11:46:13;5.00;;;3.75;;
9671;SDS011;4874;43.568;27.824;2023-06-22T11:48:39;4.65;;;3.33;;
9671;SDS011;4874;43.568;27.824;2023-06-22T11:51:06;5.25;;;3.50;;
9671;SDS011;4874;43.568;27.824;2023-06-22T11:53:34;4.50;;;3.45;;
9671;SDS011;4874;43.568;27.824;2023-06-22T11:56:01;4.57;;;3.58;;
9671;SDS011;4874;43.568;27.824;2023-06-22T11:58:28;6.00;;;4.25;;
9671;SDS011;4874;43.568;27.824;2023-06-22T12:00:55;5.80;;;3.60;;
9671;SDS011;4874;43.568;27.824;2023-06-22T12:03:22;4.90;;;4.13;;
9671;SDS011;4874;43.568;27.824;2023-06-22T12:05:50;5.45;;;4.03;;
9671;SDS011;4874;43.568;27.824;2023-06-22T12:08:20;6.47;;;4.07;;
9671;SDS011;4874;43.568;27.824;2023-06-22T12:10:49;6.72;;;4.03;;
9671;SDS011;4874;43.568;27.824;2023-06-22T12:13:16;5.38;;;3.88;;
9671;SDS011;4874;43.568;27.824;2023-06-22T12:15:43;5.30;;;3.90;;
9671;SDS011;4874;43.568;27.824;2023-06-22T12:18:10;5.70;;;4.00;;
9671;SDS011;4874;43.568;27.824;2023-06-22T12:20:37;6.35;;;4.07;;
9671;SDS011;4874;43.568;27.824;2023-06-22T12:23:04;6.03;;;3.92;;
9671;SDS011;4874;43.568;27.824;2023-06-22T12:25:31;4.75;;;3.40;;
9671;SDS011;4874;43.568;27.824;2023-06-22T12:27:58;6.03;;;3.65;;
9671;SDS011;4874;43.568;27.824;2023-06-22T12:30:25;8.38;;;4.30;;
9671;SDS011;4874;43.568;27.824;2023-06-22T12:32:52;5.40;;;4.20;;
9671;SDS011;4874;43.568;27.824;2023-06-22T12:35:20;6.47;;;4.80;;
9671;SDS011;4874;43.568;27.824;2023-06-22T12:37:47;7.07;;;5.18;;
9671;SDS011;4874;43.568;27.824;2023-06-22T12:40:14;7.32;;;5.72;;
9671;SDS011;4874;43.568;27.824;2023-06-22T12:42:40;7.38;;;5.63;;
9671;SDS011;4874;43.568;27.824;2023-06-22T12:45:08;9.80;;;5.57;;
9671;SDS011;4874;43.568;27.824;2023-06-22T12:47:36;8.63;;;5.97;;
9671;SDS011;4874;43.568;27.824;2023-06-22T12:50:03;6.45;;;5.60;;
9671;SDS011;4874;43.568;27.824;2023-06-22T12:52:30;8.98;;;6.03;;
9671;SDS011;4874;43.568;27.824;2023-06-22T12:55:00;7.63;;;6.28;;
9671;SDS011;4874;43.568;27.824;2023-06-22T12:57:27;8.50;;;5.72;;
9671;SDS011;4874;43.568;27.824;2023-06-22T12:59:54;6.90;;;5.68;;
9671;SDS011;4874;43.568;27.824;2023-06-22T13:02:20;10.10;;;5.70;;
9671;SDS011;4874;43.568;27.824;2023-06-22T13:04:47;9.52;;;5.70;;
9671;SDS011;4874;43.568;27.824;2023-06-22T13:07:14;7.28;;;5.32;;
9671;SDS011;4874;43.568;27.824;2023-06-22T13:09:48;8.00;;;5.55;;
9671;SDS011;4874;43.568;27.824;2023-06-22T13:12:19;8.93;;;6.00;;
9671;SDS011;4874;43.568;27.824;2023-06-22T13:14:46;7.38;;;5.47;;
9671;SDS011;4874;43.568;27.824;2023-06-22T13:17:13;6.88;;;5.78;;
9671;SDS011;4874;43.568;27.824;2023-06-22T13:19:41;6.55;;;5.72;;
9671;SDS011;4874;43.568;27.824;2023-06-22T13:24:54;7.03;;;5.22;;
9671;SDS011;4874;43.568;27.824;2023-06-22T13:27:21;6.88;;;5.57;;
9671;SDS011;4874;43.568;27.824;2023-06-22T13:29:49;8.25;;;5.38;;
9671;SDS011;4874;43.568;27.824;2023-06-22T13:32:16;6.82;;;5.60;;
9671;SDS011;4874;43.568;27.824;2023-06-22T13:34:43;7.15;;;5.57;;
9671;SDS011;4874;43.568;27.824;2023-06-22T13:37:10;6.88;;;5.72;;
9671;SDS011;4874;43.568;27.824;2023-06-22T13:39:36;7.05;;;5.65;;
9671;SDS011;4874;43.568;27.824;2023-06-22T13:42:03;8.75;;;5.47;;
9671;SDS011;4874;43.568;27.824;2023-06-22T13:44:30;6.75;;;5.10;;
9671;SDS011;4874;43.568;27.824;2023-06-22T13:46:57;6.30;;;4.55;;
9671;SDS011;4874;43.568;27.824;2023-06-22T13:49:24;7.60;;;5.15;;
9671;SDS011;4874;43.568;27.824;2023-06-22T13:51:51;13.25;;;8.73;;
9671;SDS011;4874;43.568;27.824;2023-06-22T13:54:17;7.53;;;5.05;;
9671;SDS011;4874;43.568;27.824;2023-06-22T13:56:47;8.48;;;5.53;;
9671;SDS011;4874;43.568;27.824;2023-06-22T13:59:15;7.38;;;5.30;;
9671;SDS011;4874;43.568;27.824;2023-06-22T14:01:42;6.95;;;5.22;;
9671;SDS011;4874;43.568;27.824;2023-06-22T14:04:09;7.88;;;6.05;;
9671;SDS011;4874;43.568;27.824;2023-06-22T14:06:37;8.23;;;5.78;;
9671;SDS011;4874;43.568;27.824;2023-06-22T14:09:04;6.28;;;5.50;;
9671;SDS011;4874;43.568;27.824;2023-06-22T14:11:31;6.78;;;5.47;;
9671;SDS011;4874;43.568;27.824;2023-06-22T14:13:58;7.57;;;5.10;;
9671;SDS011;4874;43.568;27.824;2023-06-22T14:16:25;8.15;;;5.55;;
9671;SDS011;4874;43.568;27.824;2023-06-22T14:18:52;7.55;;;5.70;;
9671;SDS011;4874;43.568;27.824;2023-06-22T14:21:20;6.13;;;4.93;;
9671;SDS011;4874;43.568;27.824;2023-06-22T14:23:47;8.48;;;6.80;;
9671;SDS011;4874;43.568;27.824;2023-06-22T14:26:15;7.50;;;4.97;;
9671;SDS011;4874;43.568;27.824;2023-06-22T14:28:45;8.38;;;5.50;;
9671;SDS011;4874;43.568;27.824;2023-06-22T14:31:14;8.18;;;5.97;;
9671;SDS011;4874;43.568;27.824;2023-06-22T14:33:51;7.00;;;5.20;;
9671;SDS011;4874;43.568;27.824;2023-06-22T14:36:17;6.43;;;5.18;;
9671;SDS011;4874;43.568;27.824;2023-06-22T14:38:44;5.80;;;4.80;;
9671;SDS011;4874;43.568;27.824;2023-06-22T14:41:12;5.75;;;4.47;;
9671;SDS011;4874;43.568;27.824;2023-06-22T14:43:45;6.45;;;4.55;;
9671;SDS011;4874;43.568;27.824;2023-06-22T14:46:19;6.85;;;4.55;;
9671;SDS011;4874;43.568;27.824;2023-06-22T14:48:46;5.93;;;4.93;;
9671;SDS011;4874;43.568;27.824;2023-06-22T14:51:13;6.20;;;4.85;;
9671;SDS011;4874;43.568;27.824;2023-06-22T14:53:45;5.68;;;4.70;;
9671;SDS011;4874;43.568;27.824;2023-06-22T14:56:13;7.25;;;5.00;;
9671;SDS011;4874;43.568;27.824;2023-06-22T14:58:42;6.97;;;4.68;;
9671;SDS011;4874;43.568;27.824;2023-06-22T15:01:13;5.55;;;4.25;;
9671;SDS011;4874;43.568;27.824;2023-06-22T15:03:41;5.55;;;4.60;;
9671;SDS011;4874;43.568;27.824;2023-06-22T15:06:09;6.72;;;4.45;;
9671;SDS011;4874;43.568;27.824;2023-06-22T15:08:39;6.35;;;4.65;;
9671;SDS011;4874;43.568;27.824;2023-06-22T15:11:06;5.93;;;4.22;;
9671;SDS011;4874;43.568;27.824;2023-06-22T15:13:34;6.30;;;4.38;;
9671;SDS011;4874;43.568;27.824;2023-06-22T15:16:01;5.97;;;4.38;;
9671;SDS011;4874;43.568;27.824;2023-06-22T15:18:32;5.65;;;4.40;;
9671;SDS011;4874;43.568;27.824;2023-06-22T15:21:02;7.80;;;4.65;;